createdAt,value
2023-04-25T00:00:54.701Z,99043.63
2023-04-25T00:03:22.548Z,99044.50
2023-04-25T00:05:50.110Z,99044.56
2023-04-25T00:08:17.412Z,99032.38
2023-04-25T00:10:44.614Z,99031.47
2023-04-25T00:13:12.757Z,99043.69
2023-04-25T00:15:39.845Z,99034.91
2023-04-25T00:18:07.558Z,99043.69
2023-04-25T00:20:34.561Z,99030.03
2023-04-25T00:23:01.498Z,99032.84
2023-04-25T00:25:28.818Z,99028.66
2023-04-25T00:27:56.635Z,99031.34
2023-04-25T00:30:24.283Z,99028.03
2023-04-25T00:32:51.879Z,99026.38
2023-04-25T00:35:19.053Z,99026.44
2023-04-25T00:37:46.951Z,99027.38
2023-04-25T00:40:14.210Z,99019.59
2023-04-25T00:42:42.616Z,99019.66
2023-04-25T00:45:14.494Z,99019.81
2023-04-25T00:47:42.724Z,99021.69
2023-04-25T00:50:10.652Z,99014.06
2023-04-25T00:52:44.162Z,99015.97
2023-04-25T00:55:13.190Z,99021.50
2023-04-25T00:57:41.719Z,99014.81
2023-04-25T01:00:15.104Z,99020.19
2023-04-25T01:02:43.844Z,99019.44
2023-04-25T01:05:11.253Z,99008.16
2023-04-25T01:07:38.898Z,99014.41
2023-04-25T01:10:07.417Z,99015.41
2023-04-25T01:12:35.169Z,99014.63
2023-04-25T01:15:02.111Z,99007.78
2023-04-25T01:17:30.357Z,99011.47
2023-04-25T01:20:07.086Z,99007.31
2023-04-25T01:22:34.507Z,99006.59
2023-04-25T01:25:01.877Z,99007.66
2023-04-25T01:27:31.509Z,99011.28
2023-04-25T01:30:00.852Z,99004.38
2023-04-25T01:32:28.819Z,99006.25
2023-04-25T01:34:56.135Z,98998.50
2023-04-25T01:37:23.688Z,99001.19
2023-04-25T01:39:51.458Z,98992.47
2023-04-25T01:42:19.057Z,99002.88
2023-04-25T01:44:46.004Z,99002.06
2023-04-25T01:47:12.976Z,98993.34
2023-04-25T01:49:40.303Z,98998.56
2023-04-25T01:52:07.307Z,98994.25
2023-04-25T01:54:34.339Z,98990.84
2023-04-25T01:57:02.928Z,98991.00
2023-04-25T01:59:31.044Z,98994.50
2023-04-25T02:02:07.976Z,98988.63
2023-04-25T02:04:36.617Z,98985.25
2023-04-25T02:07:10.229Z,98981.94
2023-04-25T02:09:58.241Z,98979.41
2023-04-25T02:12:29.038Z,98984.66
2023-04-25T02:15:16.460Z,98979.47
2023-04-25T02:17:50.500Z,98977.75
2023-04-25T02:20:17.767Z,98980.38
2023-04-25T02:22:44.759Z,98976.06
2023-04-25T02:25:14.765Z,98975.28
2023-04-25T02:27:42.326Z,98978.03
2023-04-25T02:30:10.093Z,98972.09
2023-04-25T02:32:37.852Z,98973.13
2023-04-25T02:35:05.711Z,98977.56
2023-04-25T02:37:34.502Z,98981.16
2023-04-25T02:40:01.832Z,98975.16
2023-04-25T02:42:29.544Z,98975.31
2023-04-25T02:44:58.252Z,98973.69
2023-04-25T02:47:26.053Z,98978.78
2023-04-25T02:49:54.273Z,98970.84
2023-04-25T02:52:28.402Z,98979.53
2023-04-25T02:54:59.889Z,98972.50
2023-04-25T02:57:29.274Z,98974.22
2023-04-25T02:59:57.207Z,98976.75
2023-04-25T03:02:24.862Z,98983.63
2023-04-25T03:04:52.272Z,98976.44
2023-04-25T03:07:20.555Z,98981.22
2023-04-25T03:09:50.382Z,98983.06
2023-04-25T03:12:17.883Z,98977.72
2023-04-25T03:14:45.611Z,98974.06
2023-04-25T03:17:13.134Z,98975.38
2023-04-25T03:19:40.570Z,98983.72
2023-04-25T03:22:08.288Z,98981.53
2023-04-25T03:24:36.675Z,98971.41
2023-04-25T03:27:04.769Z,98971.41
2023-04-25T03:29:32.529Z,98966.81
2023-04-25T03:32:04.790Z,98968.34
2023-04-25T03:34:33.543Z,98966.53
2023-04-25T03:37:01.246Z,98971.03
2023-04-25T03:39:30.824Z,98963.47
2023-04-25T03:42:00.301Z,98964.66
2023-04-25T03:44:31.737Z,98961.16
2023-04-25T03:47:01.634Z,98951.75
2023-04-25T03:49:30.905Z,98954.56
2023-04-25T03:52:03.314Z,98949.56
2023-04-25T03:54:37.305Z,98942.19
2023-04-25T03:57:16.461Z,98942.31
2023-04-25T03:59:46.632Z,98954.09
2023-04-25T04:02:16.196Z,98950.78
2023-04-25T04:04:45.374Z,98954.34
2023-04-25T04:07:13.828Z,98962.72
2023-04-25T04:09:43.893Z,98955.06
2023-04-25T04:12:18.024Z,98948.72
2023-04-25T04:14:46.311Z,98952.41
2023-04-25T04:17:14.080Z,98950.38
2023-04-25T04:19:41.748Z,98944.59
2023-04-25T04:22:16.058Z,98945.13
2023-04-25T04:24:47.924Z,98934.84
2023-04-25T04:27:21.515Z,98929.44
2023-04-25T04:29:55.914Z,98934.38
2023-04-25T04:32:28.695Z,98932.09
2023-04-25T04:34:59.169Z,98937.25
2023-04-25T04:37:26.404Z,98926.56
2023-04-25T04:39:54.175Z,98922.75
2023-04-25T04:42:32.828Z,98931.59
2023-04-25T04:45:11.728Z,98919.47
2023-04-25T04:47:47.002Z,98928.19
2023-04-25T04:50:19.414Z,98929.31
2023-04-25T04:53:09.694Z,98930.00
2023-04-25T04:56:00.223Z,98921.44
2023-04-25T04:58:51.538Z,98919.38
2023-04-25T05:01:34.338Z,98917.06
2023-04-25T05:04:21.951Z,98918.28
2023-04-25T05:06:50.784Z,98914.22
2023-04-25T05:09:37.124Z,98912.31
2023-04-25T05:12:21.117Z,98910.19
2023-04-25T05:15:16.568Z,98915.59
2023-04-25T05:18:22.412Z,98901.22
2023-04-25T05:21:09.553Z,98907.06
2023-04-25T05:23:47.521Z,98906.09
2023-04-25T05:26:33.992Z,98910.81
2023-04-25T05:29:20.412Z,98914.38
2023-04-25T05:32:07.621Z,98910.00
2023-04-25T05:34:36.853Z,98907.81
2023-04-25T05:37:07.659Z,98896.16
2023-04-25T05:39:42.119Z,98901.56
2023-04-25T05:42:37.217Z,98898.78
2023-04-25T05:45:35.659Z,98895.81
2023-04-25T05:48:22.493Z,98891.28
2023-04-25T05:51:10.415Z,98895.28
2023-04-25T05:53:47.359Z,98885.09
2023-04-25T05:56:16.280Z,98886.25
2023-04-25T05:58:43.716Z,98879.34
2023-04-25T06:01:14.280Z,98879.09
2023-04-25T06:03:44.384Z,98878.13
2023-04-25T06:06:13.634Z,98874.91
2023-04-25T06:08:42.989Z,98879.47
2023-04-25T06:11:13.472Z,98877.13
2023-04-25T06:13:41.231Z,98874.78
2023-04-25T06:16:08.667Z,98879.19
2023-04-25T06:18:36.561Z,98873.59
2023-04-25T06:21:04.781Z,98874.06
2023-04-25T06:23:33.161Z,98872.66
2023-04-25T06:26:05.938Z,98863.66
2023-04-25T06:28:35.927Z,98865.47
2023-04-25T06:31:04.033Z,98865.41
2023-04-25T06:33:31.941Z,98870.88
2023-04-25T06:35:59.647Z,98867.69
2023-04-25T06:38:28.213Z,98866.88
2023-04-25T06:40:57.745Z,98860.06
2023-04-25T06:43:28.047Z,98860.06
2023-04-25T06:46:04.540Z,98848.78
2023-04-25T06:48:33.990Z,98856.53
2023-04-25T06:51:03.695Z,98857.72
2023-04-25T06:53:32.227Z,98853.31
2023-04-25T06:56:03.235Z,98852.78
2023-04-25T06:58:41.286Z,98849.72
2023-04-25T07:01:16.720Z,98849.97
2023-04-25T07:03:44.816Z,98858.59
2023-04-25T07:06:17.565Z,98849.94
2023-04-25T07:08:44.849Z,98858.22
2023-04-25T07:11:14.049Z,98854.19
2023-04-25T07:13:44.016Z,98865.31
2023-04-25T07:16:12.219Z,98860.75
2023-04-25T07:18:39.915Z,98857.69
2023-04-25T07:21:07.691Z,98860.88
2023-04-25T07:23:36.738Z,98864.69
2023-04-25T07:26:10.042Z,98861.13
2023-04-25T07:28:42.894Z,98855.06
2023-04-25T07:31:12.016Z,98860.22
2023-04-25T07:33:39.832Z,98853.09
2023-04-25T07:36:08.655Z,98854.69
2023-04-25T07:38:35.967Z,98856.22
2023-04-25T07:41:03.368Z,98852.34
2023-04-25T07:43:31.807Z,98857.44
2023-04-25T07:46:00.201Z,98858.22
2023-04-25T07:48:31.072Z,98851.81
2023-04-25T07:50:58.705Z,98844.56
2023-04-25T07:53:25.726Z,98842.84
2023-04-25T07:56:01.130Z,98847.06
2023-04-25T07:58:32.118Z,98842.66
2023-04-25T08:01:02.394Z,98849.81
2023-04-25T08:03:35.808Z,98837.44
2023-04-25T08:06:08.410Z,98837.28
2023-04-25T08:08:44.374Z,98841.72
2023-04-25T08:11:14.807Z,98840.50
2023-04-25T08:13:42.024Z,98831.75
2023-04-25T08:16:11.049Z,98843.38
2023-04-25T08:18:38.602Z,98842.03
2023-04-25T08:21:08.691Z,98836.44
2023-04-25T08:23:36.827Z,98836.91
2023-04-25T08:26:10.256Z,98836.63
2023-04-25T08:28:39.869Z,98827.31
2023-04-25T08:31:07.258Z,98829.03
2023-04-25T08:33:45.947Z,98831.25
2023-04-25T08:36:39.463Z,98819.28
2023-04-25T08:39:19.951Z,98827.31
2023-04-25T08:42:09.017Z,98818.44
2023-04-25T08:44:39.526Z,98809.13
2023-04-25T08:47:07.101Z,98816.19
2023-04-25T08:49:47.179Z,98803.84
2023-04-25T08:52:15.918Z,98813.31
2023-04-25T08:54:48.304Z,98812.56
2023-04-25T08:57:16.568Z,98803.03
2023-04-25T08:59:47.527Z,98794.91
2023-04-25T09:02:18.124Z,98807.00
2023-04-25T09:04:49.763Z,98800.28
2023-04-25T09:07:19.817Z,98799.53
2023-04-25T09:09:47.066Z,98800.59
2023-04-25T09:12:20.581Z,98796.16
2023-04-25T09:15:11.525Z,98796.97
2023-04-25T09:18:01.572Z,98792.03
2023-04-25T09:20:59.656Z,98787.84
2023-04-25T09:23:28.939Z,98787.06
2023-04-25T09:25:56.841Z,98779.53
2023-04-25T09:28:30.878Z,98780.09
2023-04-25T09:31:01.960Z,98780.25
2023-04-25T09:33:43.810Z,98781.16
2023-04-25T09:36:15.236Z,98781.44
2023-04-25T09:38:57.613Z,98778.28
2023-04-25T09:41:28.929Z,98762.13
2023-04-25T09:44:01.060Z,98772.81
2023-04-25T09:46:38.871Z,98765.69
2023-04-25T09:49:11.586Z,98759.97
2023-04-25T09:51:59.013Z,98760.56
2023-04-25T09:54:30.808Z,98756.00
2023-04-25T09:57:25.993Z,98758.53
2023-04-25T09:59:57.203Z,98755.84
2023-04-25T10:02:28.680Z,98757.50
2023-04-25T10:05:04.868Z,98761.06
2023-04-25T10:07:40.811Z,98763.75
2023-04-25T10:10:17.006Z,98747.41
2023-04-25T10:12:46.068Z,98747.22
2023-04-25T10:15:16.678Z,98738.00
2023-04-25T10:17:45.581Z,98738.00
2023-04-25T10:20:14.039Z,98728.75
2023-04-25T10:22:45.469Z,98730.63
2023-04-25T10:25:13.403Z,98731.84
2023-04-25T10:27:41.180Z,98721.25
2023-04-25T10:30:16.841Z,98726.47
2023-04-25T10:32:46.190Z,98724.81
2023-04-25T10:35:17.690Z,98727.31
2023-04-25T10:38:08.767Z,98723.72
2023-04-25T10:40:37.457Z,98721.63
2023-04-25T10:43:32.586Z,98724.69
2023-04-25T10:46:04.598Z,98721.41
2023-04-25T10:48:32.884Z,98716.91
2023-04-25T10:51:13.662Z,98726.28
2023-04-25T10:53:41.104Z,98725.63
2023-04-25T10:56:15.633Z,98701.06
2023-04-25T10:58:48.117Z,98696.78
2023-04-25T11:01:21.718Z,98699.88
2023-04-25T11:04:08.001Z,98701.38
2023-04-25T11:07:12.690Z,98703.22
2023-04-25T11:09:42.122Z,98697.13
2023-04-25T11:12:11.119Z,98699.69
2023-04-25T11:17:07.830Z,98703.03
2023-04-25T11:19:35.351Z,98697.16
2023-04-25T11:22:04.096Z,98700.41
2023-04-25T11:24:33.357Z,98694.38
2023-04-25T11:27:01.209Z,98684.25
2023-04-25T11:29:29.180Z,98695.09
2023-04-25T11:31:59.562Z,98689.16
2023-04-25T11:34:28.301Z,98688.22
2023-04-25T11:36:55.963Z,98681.66
2023-04-25T11:39:24.590Z,98676.84
2023-04-25T11:41:51.643Z,98675.28
2023-04-25T11:44:20.387Z,98669.22
2023-04-25T11:46:48.938Z,98674.19
2023-04-25T11:49:16.838Z,98672.69
2023-04-25T11:51:49.790Z,98672.38
2023-04-25T11:54:17.360Z,98662.47
2023-04-25T11:56:45.989Z,98670.53
2023-04-25T11:59:14.394Z,98652.53
2023-04-25T12:01:50.811Z,98655.44
2023-04-25T12:04:19.375Z,98645.56
2023-04-25T12:06:49.203Z,98655.22
2023-04-25T12:09:38.831Z,98659.03
2023-04-25T12:12:07.052Z,98657.44
2023-04-25T12:14:37.087Z,98647.84
2023-04-25T12:17:09.535Z,98643.41
2023-04-25T12:19:41.442Z,98636.56
2023-04-25T12:22:23.719Z,98636.00
2023-04-25T12:24:51.850Z,98630.56
2023-04-25T12:27:20.463Z,98632.41
2023-04-25T12:29:57.911Z,98634.25
2023-04-25T12:32:26.840Z,98620.81
2023-04-25T12:34:54.203Z,98621.84
2023-04-25T12:37:23.117Z,98623.31
2023-04-25T12:39:51.872Z,98615.28
2023-04-25T12:42:19.452Z,98619.69
2023-04-25T12:44:47.710Z,98608.84
2023-04-25T12:47:15.471Z,98608.06
2023-04-25T12:49:42.338Z,98602.06
2023-04-25T12:52:10.503Z,98606.81
2023-04-25T12:54:37.624Z,98603.84
2023-04-25T12:57:04.727Z,98605.91
2023-04-25T12:59:34.561Z,98611.00
2023-04-25T13:02:02.161Z,98598.72
2023-04-25T13:04:29.442Z,98591.56
2023-04-25T13:06:57.181Z,98591.66
2023-04-25T13:09:24.974Z,98590.09
2023-04-25T13:11:56.040Z,98572.94
2023-04-25T13:14:25.348Z,98567.25
2023-04-25T13:16:53.538Z,98579.03
2023-04-25T13:19:21.471Z,98569.84
2023-04-25T13:21:48.643Z,98568.50
2023-04-25T13:24:15.657Z,98566.66
2023-04-25T13:26:43.102Z,98563.38
2023-04-25T13:29:10.207Z,98563.31
2023-04-25T13:31:37.532Z,98566.69
2023-04-25T13:34:04.757Z,98566.31
2023-04-25T13:36:33.109Z,98556.34
2023-04-25T13:39:01.045Z,98561.34
2023-04-25T13:41:28.162Z,98558.38
2023-04-25T13:43:55.619Z,98548.63
2023-04-25T13:46:44.636Z,98546.53
2023-04-25T13:49:16.764Z,98551.63
2023-04-25T13:51:44.001Z,98539.94
2023-04-25T13:54:11.857Z,98548.44
2023-04-25T13:56:39.556Z,98545.44
2023-04-25T13:59:07.014Z,98548.34
2023-04-25T14:01:37.104Z,98548.66
2023-04-25T14:04:07.984Z,98542.56
2023-04-25T14:06:38.064Z,98539.84
2023-04-25T14:09:08.400Z,98541.44
2023-04-25T14:11:35.514Z,98538.94
2023-04-25T14:14:02.711Z,98534.81
2023-04-25T14:16:31.594Z,98532.00
2023-04-25T14:19:02.167Z,98538.09
2023-04-25T14:21:30.596Z,98539.06
2023-04-25T14:23:58.505Z,98539.41
2023-04-25T14:26:25.933Z,98531.16
2023-04-25T14:28:53.783Z,98544.84
2023-04-25T14:31:22.488Z,98536.63
2023-04-25T14:33:54.744Z,98535.81
2023-04-25T14:36:23.331Z,98534.50
2023-04-25T14:38:50.686Z,98525.41
2023-04-25T14:41:18.230Z,98523.50
2023-04-25T14:43:46.758Z,98519.47
2023-04-25T14:46:15.765Z,98522.44
2023-04-25T14:48:43.891Z,98521.97
2023-04-25T14:51:10.795Z,98514.19
2023-04-25T14:53:39.606Z,98522.81
2023-04-25T14:56:06.859Z,98513.56
2023-04-25T14:58:34.033Z,98522.13
2023-04-25T15:01:01.627Z,98515.25
2023-04-25T15:03:29.346Z,98515.69
2023-04-25T15:05:57.128Z,98510.22
2023-04-25T15:08:24.470Z,98514.97
2023-04-25T15:10:51.900Z,98520.38
2023-04-25T15:13:20.472Z,98521.53
2023-04-25T15:15:52.561Z,98511.75
2023-04-25T15:18:25.241Z,98520.16
2023-04-25T15:20:53.580Z,98512.78
2023-04-25T15:23:22.736Z,98517.03
2023-04-25T15:25:53.020Z,98514.34
2023-04-25T15:28:22.620Z,98512.81
2023-04-25T15:30:50.249Z,98500.50
2023-04-25T15:33:18.031Z,98501.78
2023-04-25T15:35:46.194Z,98508.84
2023-04-25T15:38:13.807Z,98503.84
2023-04-25T15:40:44.879Z,98505.88
2023-04-25T15:43:16.183Z,98504.91
2023-04-25T15:45:43.802Z,98495.94
2023-04-25T15:48:11.523Z,98494.97
2023-04-25T15:50:39.217Z,98494.75
2023-04-25T15:53:07.476Z,98490.69
2023-04-25T15:55:35.583Z,98488.88
2023-04-25T15:58:03.292Z,98490.56
2023-04-25T16:00:31.837Z,98481.44
2023-04-25T16:02:59.717Z,98486.81
2023-04-25T16:05:27.408Z,98484.56
2023-04-25T16:07:57.805Z,98482.16
2023-04-25T16:10:25.285Z,98482.88
2023-04-25T16:12:53.359Z,98483.84
2023-04-25T16:15:20.934Z,98479.03
2023-04-25T16:17:48.548Z,98484.97
2023-04-25T16:20:15.960Z,98484.34
2023-04-25T16:22:44.689Z,98477.75
2023-04-25T16:25:12.954Z,98482.81
2023-04-25T16:27:41.963Z,98483.75
2023-04-25T16:30:10.942Z,98493.56
2023-04-25T16:32:40.384Z,98489.31
2023-04-25T16:35:09.641Z,98489.16
2023-04-25T16:37:38.457Z,98488.25
2023-04-25T16:40:09.277Z,98489.34
2023-04-25T16:42:37.502Z,98490.41
2023-04-25T16:45:05.546Z,98490.16
2023-04-25T16:47:33.729Z,98491.63
2023-04-25T16:50:01.839Z,98496.34
2023-04-25T16:52:28.836Z,98492.84
2023-04-25T16:54:55.854Z,98488.84
2023-04-25T16:57:23.548Z,98491.56
2023-04-25T16:59:50.980Z,98494.25
2023-04-25T17:02:19.214Z,98492.47
2023-04-25T17:04:47.100Z,98488.41
2023-04-25T17:07:15.387Z,98493.75
2023-04-25T17:09:42.840Z,98493.75
2023-04-25T17:12:11.519Z,98494.00
2023-04-25T17:14:39.634Z,98497.69
2023-04-25T17:17:07.423Z,98507.22
2023-04-25T17:19:37.047Z,98502.03
2023-04-25T17:22:05.333Z,98503.97
2023-04-25T17:24:32.996Z,98495.38
2023-04-25T17:27:00.110Z,98507.66
2023-04-25T17:29:28.450Z,98511.13
2023-04-25T17:31:57.434Z,98506.53
2023-04-25T17:34:25.222Z,98509.91
2023-04-25T17:36:52.823Z,98510.56
2023-04-25T17:39:20.492Z,98517.41
2023-04-25T17:41:47.688Z,98508.19
2023-04-25T17:44:15.631Z,98518.56
2023-04-25T17:46:43.444Z,98526.13
2023-04-25T17:49:11.981Z,98527.69
2023-04-25T17:51:39.589Z,98533.31
2023-04-25T17:54:07.160Z,98529.41
2023-04-25T17:56:37.990Z,98521.97
2023-04-25T17:59:05.587Z,98533.06
2023-04-25T18:01:32.970Z,98531.47
2023-04-25T18:04:01.832Z,98536.91
2023-04-25T18:06:29.806Z,98539.66
2023-04-25T18:09:00.314Z,98538.81
2023-04-25T18:11:28.217Z,98539.78
2023-04-25T18:13:56.418Z,98538.81
2023-04-25T18:16:23.694Z,98539.56
2023-04-25T18:18:54.968Z,98533.41
2023-04-25T18:21:23.074Z,98539.44
2023-04-25T18:23:50.427Z,98546.22
2023-04-25T18:26:18.588Z,98539.97
2023-04-25T18:28:46.010Z,98543.69
2023-04-25T18:31:14.344Z,98543.16
2023-04-25T18:33:44.881Z,98546.13
2023-04-25T18:36:12.124Z,98539.59
2023-04-25T18:38:40.490Z,98545.13
2023-04-25T18:41:33.850Z,98542.56
2023-04-25T18:43:58.718Z,98540.03
2023-04-25T18:46:26.426Z,98548.09
2023-04-25T18:48:54.617Z,98542.16
2023-04-25T18:51:30.051Z,98546.75
2023-04-25T18:54:00.641Z,98539.00
2023-04-25T18:56:29.000Z,98546.53
2023-04-25T18:58:58.745Z,98552.47
2023-04-25T19:01:29.135Z,98544.31
2023-04-25T19:03:57.652Z,98553.75
2023-04-25T19:06:28.142Z,98551.69
2023-04-25T19:08:57.800Z,98550.44
2023-04-25T19:11:25.706Z,98554.78
2023-04-25T19:13:56.875Z,98557.22
2023-04-25T19:16:26.734Z,98548.25
2023-04-25T19:18:57.311Z,98555.97
2023-04-25T19:21:24.997Z,98555.66
2023-04-25T19:23:54.878Z,98555.31
2023-04-25T19:26:22.864Z,98539.91
2023-04-25T19:29:09.135Z,98551.00
2023-04-25T19:31:38.167Z,98553.22
2023-04-25T19:34:07.999Z,98547.38
2023-04-25T19:36:38.773Z,98544.16
2023-04-25T19:39:09.266Z,98543.69
2023-04-25T19:41:38.957Z,98542.22
2023-04-25T19:44:07.859Z,98543.44
2023-04-25T19:46:37.071Z,98542.88
2023-04-25T19:49:08.193Z,98546.28
2023-04-25T19:51:36.741Z,98540.78
2023-04-25T19:54:04.604Z,98537.00
2023-04-25T19:56:31.711Z,98545.59
2023-04-25T19:58:58.698Z,98547.13
2023-04-25T20:01:26.418Z,98539.28
2023-04-25T20:03:54.166Z,98549.88
2023-04-25T20:06:22.007Z,98549.31
2023-04-25T20:08:51.020Z,98544.41
2023-04-25T20:11:18.501Z,98555.28
2023-04-25T20:13:45.934Z,98556.59
2023-04-25T20:16:14.019Z,98556.81
2023-04-25T20:18:42.022Z,98558.69
2023-04-25T20:21:09.379Z,98561.34
2023-04-25T20:23:38.412Z,98558.59
2023-04-25T20:26:05.825Z,98561.91
2023-04-25T20:28:33.280Z,98569.56
2023-04-25T20:31:04.026Z,98573.91
2023-04-25T20:33:31.649Z,98572.97
2023-04-25T20:35:59.256Z,98568.22
2023-04-25T20:38:27.041Z,98569.72
2023-04-25T20:40:56.156Z,98571.44
2023-04-25T20:43:24.011Z,98565.28
2023-04-25T20:45:50.980Z,98573.25
2023-04-25T20:48:18.589Z,98573.34
2023-04-25T20:50:47.800Z,98566.22
2023-04-25T20:53:15.249Z,98577.09
2023-04-25T20:55:42.284Z,98576.56
2023-04-25T20:58:09.872Z,98586.50
2023-04-25T21:00:39.586Z,98579.03
2023-04-25T21:03:08.031Z,98575.53
2023-04-25T21:05:36.512Z,98577.50
2023-04-25T21:08:04.458Z,98576.03
2023-04-25T21:10:31.561Z,98576.22
2023-04-25T21:12:58.981Z,98570.47
2023-04-25T21:15:26.876Z,98581.38
2023-04-25T21:17:54.999Z,98578.94
2023-04-25T21:20:22.085Z,98581.09
2023-04-25T21:22:53.755Z,98587.41
2023-04-25T21:25:25.735Z,98576.28
2023-04-25T21:27:53.597Z,98575.72
2023-04-25T21:30:23.748Z,98579.56
2023-04-25T21:32:52.972Z,98582.56
2023-04-25T21:35:23.396Z,98581.16
2023-04-25T21:37:51.890Z,98575.41
2023-04-25T21:40:19.084Z,98580.09
2023-04-25T21:42:54.348Z,98580.47
2023-04-25T21:45:22.611Z,98579.03
2023-04-25T21:47:50.713Z,98579.47
2023-04-25T21:50:18.901Z,98581.66
2023-04-25T21:52:45.966Z,98578.50
2023-04-25T21:55:13.322Z,98577.06
2023-04-25T21:57:43.534Z,98578.28
2023-04-25T22:00:21.993Z,98586.38
2023-04-25T22:02:49.822Z,98587.41
2023-04-25T22:05:18.323Z,98578.72
2023-04-25T22:07:45.950Z,98569.22
2023-04-25T22:10:13.802Z,98573.78
2023-04-25T22:12:41.450Z,98577.47
2023-04-25T22:15:10.216Z,98571.41
2023-04-25T22:17:38.874Z,98561.81
2023-04-25T22:20:14.381Z,98558.47
2023-04-25T22:22:42.142Z,98556.78
2023-04-25T22:25:10.049Z,98563.16
2023-04-25T22:27:37.035Z,98559.09
2023-04-25T22:30:04.868Z,98558.69
2023-04-25T22:32:32.325Z,98559.03
2023-04-25T22:34:59.959Z,98561.16
2023-04-25T22:37:27.208Z,98567.88
2023-04-25T22:39:55.121Z,98564.97
2023-04-25T22:42:22.226Z,98562.91
2023-04-25T22:44:49.824Z,98559.91
2023-04-25T22:47:17.071Z,98564.06
2023-04-25T22:49:45.761Z,98562.78
2023-04-25T22:52:13.339Z,98564.78
2023-04-25T22:54:40.281Z,98570.22
2023-04-25T22:57:08.394Z,98574.66
2023-04-25T22:59:37.019Z,98570.31
2023-04-25T23:02:04.019Z,98564.09
2023-04-25T23:04:31.464Z,98574.56
2023-04-25T23:06:58.841Z,98562.94
2023-04-25T23:09:26.746Z,98563.78
2023-04-25T23:11:54.042Z,98571.63
2023-04-25T23:14:21.348Z,98560.91
2023-04-25T23:16:48.588Z,98569.91
2023-04-25T23:19:15.625Z,98567.44
2023-04-25T23:21:43.032Z,98562.06
2023-04-25T23:24:10.282Z,98556.81
2023-04-25T23:26:37.701Z,98563.78
2023-04-25T23:29:05.271Z,98560.38
2023-04-25T23:31:32.531Z,98562.94
2023-04-25T23:34:00.276Z,98558.69
2023-04-25T23:36:28.399Z,98554.31
2023-04-25T23:38:56.356Z,98560.56
2023-04-25T23:41:23.877Z,98558.75
2023-04-25T23:43:51.001Z,98558.00
2023-04-25T23:46:19.000Z,98564.19
2023-04-25T23:48:46.806Z,98561.63
2023-04-25T23:51:14.432Z,98558.22
2023-04-25T23:53:42.108Z,98557.41
2023-04-25T23:56:10.028Z,98563.66
2023-04-25T23:58:37.458Z,98568.09
